createdAt,value
2022-07-29T00:00:27.942Z,54.11
2022-07-29T00:02:54.849Z,54.06
2022-07-29T00:05:21.779Z,53.30
2022-07-29T00:07:48.671Z,53.25
2022-07-29T00:10:15.538Z,53.77
2022-07-29T00:12:42.432Z,54.17
2022-07-29T00:15:09.931Z,53.70
2022-07-29T00:17:36.841Z,54.40
2022-07-29T00:20:05.031Z,53.31
2022-07-29T00:22:32.956Z,52.76
2022-07-29T00:24:59.915Z,53.31
2022-07-29T00:27:26.799Z,52.68
2022-07-29T00:29:53.720Z,52.98
2022-07-29T00:32:20.556Z,53.13
2022-07-29T00:35:05.940Z,52.94
2022-07-29T00:37:32.839Z,53.28
2022-07-29T00:39:59.693Z,53.34
2022-07-29T00:42:26.617Z,53.40
2022-07-29T00:44:53.441Z,53.59
2022-07-29T00:47:20.386Z,53.99
2022-07-29T00:49:47.815Z,54.35
2022-07-29T00:52:17.015Z,54.21
2022-07-29T00:54:45.037Z,54.35
2022-07-29T00:57:13.010Z,54.55
2022-07-29T00:59:40.481Z,54.47
2022-07-29T01:02:07.471Z,55.34
2022-07-29T01:04:34.721Z,55.39
2022-07-29T01:07:03.123Z,54.79
2022-07-29T01:09:43.106Z,54.50
2022-07-29T01:12:18.960Z,55.10
2022-07-29T01:14:48.391Z,55.26
2022-07-29T01:17:34.980Z,55.71
2022-07-29T01:20:50.355Z,55.90
2022-07-29T01:23:35.615Z,55.97
2022-07-29T01:26:14.387Z,56.01
2022-07-29T01:29:01.059Z,55.85
2022-07-29T01:31:55.189Z,56.31
2022-07-29T01:34:51.641Z,55.81
2022-07-29T01:37:27.389Z,56.14
2022-07-29T01:39:57.586Z,55.94
2022-07-29T01:42:30.370Z,56.72
2022-07-29T01:45:11.944Z,57.33
2022-07-29T01:47:44.741Z,57.41
2022-07-29T01:50:15.876Z,57.45
2022-07-29T01:52:57.291Z,57.71
2022-07-29T01:55:28.190Z,57.91
2022-07-29T01:57:57.580Z,58.26
2022-07-29T02:00:26.220Z,58.35
2022-07-29T02:02:55.492Z,58.94
2022-07-29T02:05:24.348Z,58.89
2022-07-29T02:07:53.566Z,59.34
2022-07-29T02:10:26.028Z,59.79
2022-07-29T02:12:56.335Z,60.01
2022-07-29T02:15:26.869Z,59.82
2022-07-29T02:18:08.399Z,60.26
2022-07-29T02:20:35.711Z,59.50
2022-07-29T02:23:03.792Z,59.12
2022-07-29T02:25:37.232Z,59.41
2022-07-29T02:28:09.166Z,59.24
2022-07-29T02:30:43.000Z,59.59
2022-07-29T02:33:13.674Z,59.24
2022-07-29T02:35:42.182Z,59.42
2022-07-29T02:38:31.960Z,59.13
2022-07-29T02:41:01.463Z,59.49
2022-07-29T02:43:30.129Z,59.70
2022-07-29T02:45:59.427Z,59.43
2022-07-29T02:48:35.821Z,59.24
2022-07-29T02:51:43.754Z,59.24
2022-07-29T02:54:08.983Z,59.23
2022-07-29T02:56:37.420Z,59.49
2022-07-29T02:59:10.779Z,59.80
2022-07-29T03:01:43.678Z,59.77
2022-07-29T03:04:12.911Z,60.37
2022-07-29T03:06:41.741Z,60.43
2022-07-29T03:09:13.315Z,60.75
2022-07-29T03:11:49.883Z,60.96
2022-07-29T03:14:20.828Z,61.31
2022-07-29T03:16:49.427Z,61.13
2022-07-29T03:19:17.337Z,61.12
2022-07-29T03:21:51.453Z,61.79
2022-07-29T03:24:36.014Z,61.94
2022-07-29T03:27:04.662Z,61.80
2022-07-29T03:29:33.126Z,61.71
2022-07-29T03:32:02.717Z,62.07
2022-07-29T03:34:30.503Z,62.50
2022-07-29T03:36:57.415Z,62.49
2022-07-29T03:39:28.816Z,62.19
2022-07-29T03:41:59.654Z,62.16
2022-07-29T03:44:28.541Z,62.33
2022-07-29T03:46:59.654Z,62.58
2022-07-29T03:49:27.899Z,62.27
2022-07-29T03:51:55.681Z,62.37
2022-07-29T03:54:22.696Z,62.62
2022-07-29T03:56:51.744Z,62.46
2022-07-29T03:59:20.641Z,62.30
2022-07-29T04:01:49.138Z,62.27
2022-07-29T04:04:16.513Z,62.75
2022-07-29T04:06:46.075Z,62.64
2022-07-29T04:09:15.353Z,62.63
2022-07-29T04:12:02.383Z,62.57
2022-07-29T04:14:30.140Z,62.88
2022-07-29T04:16:57.011Z,63.12
2022-07-29T04:19:23.854Z,63.13
2022-07-29T04:21:57.436Z,63.09
2022-07-29T04:24:24.254Z,63.55
2022-07-29T04:26:51.179Z,63.63
2022-07-29T04:29:18.092Z,63.82
2022-07-29T04:31:45.418Z,63.94
2022-07-29T04:34:13.471Z,63.82
2022-07-29T04:36:40.787Z,64.15
2022-07-29T04:39:07.617Z,64.10
2022-07-29T04:41:34.683Z,64.23
2022-07-29T04:44:06.170Z,64.67
2022-07-29T04:46:35.044Z,64.53
2022-07-29T04:49:02.212Z,63.90
2022-07-29T04:51:29.129Z,63.78
2022-07-29T04:53:56.008Z,63.81
2022-07-29T04:56:23.020Z,63.92
2022-07-29T04:58:49.914Z,63.68
2022-07-29T05:01:16.847Z,63.15
2022-07-29T05:03:43.736Z,63.10
2022-07-29T05:06:10.868Z,62.93
2022-07-29T05:08:38.358Z,62.56
2022-07-29T05:11:12.182Z,61.84
2022-07-29T05:13:45.422Z,62.16
2022-07-29T05:16:14.802Z,61.96
2022-07-29T05:18:42.250Z,61.87
2022-07-29T05:21:09.250Z,61.20
2022-07-29T05:23:36.122Z,61.38
2022-07-29T05:28:58.133Z,60.67
2022-07-29T05:31:25.086Z,61.42
2022-07-29T05:33:51.998Z,61.19
2022-07-29T05:36:19.340Z,60.97
2022-07-29T05:38:46.281Z,61.26
2022-07-29T05:41:13.158Z,61.66
2022-07-29T05:43:40.033Z,62.03
2022-07-29T05:46:07.016Z,62.74
2022-07-29T05:48:33.913Z,64.03
2022-07-29T05:51:00.826Z,64.69
2022-07-29T05:53:27.712Z,65.39
2022-07-29T05:55:54.629Z,65.72
2022-07-29T05:58:21.729Z,66.20
2022-07-29T06:00:48.657Z,65.83
2022-07-29T06:03:15.510Z,65.95
2022-07-29T06:05:42.391Z,66.11
2022-07-29T06:08:10.290Z,66.43
2022-07-29T06:10:37.215Z,65.88
2022-07-29T06:13:04.523Z,65.91
2022-07-29T06:15:31.751Z,64.54
2022-07-29T06:17:59.119Z,64.73
2022-07-29T06:20:30.908Z,62.94
2022-07-29T06:22:59.301Z,62.81
2022-07-29T06:25:26.399Z,63.01
2022-07-29T06:27:53.509Z,63.55
2022-07-29T06:30:20.497Z,62.20
2022-07-29T06:32:47.921Z,62.32
2022-07-29T06:38:02.455Z,60.65
2022-07-29T06:40:47.708Z,60.53
2022-07-29T06:43:14.708Z,60.66
2022-07-29T06:45:42.644Z,60.52
2022-07-29T06:48:11.058Z,59.86
2022-07-29T06:50:38.144Z,59.01
2022-07-29T06:53:05.252Z,58.44
2022-07-29T06:55:32.204Z,57.03
2022-07-29T06:57:59.176Z,56.52
2022-07-29T07:00:26.697Z,57.02
2022-07-29T07:02:53.877Z,55.70
2022-07-29T07:05:20.912Z,54.61
2022-07-29T07:07:47.743Z,54.68
2022-07-29T07:10:14.639Z,53.68
2022-07-29T07:12:41.482Z,53.00
2022-07-29T07:15:08.639Z,51.79
2022-07-29T07:17:35.600Z,51.74
2022-07-29T07:20:02.472Z,52.09
2022-07-29T07:22:29.327Z,52.34
2022-07-29T07:24:56.142Z,52.05
2022-07-29T07:27:23.773Z,52.93
2022-07-29T07:29:50.741Z,52.79
2022-07-29T07:32:17.783Z,51.70
2022-07-29T07:34:44.888Z,50.25
2022-07-29T07:37:12.928Z,50.33
2022-07-29T07:39:39.758Z,50.48
2022-07-29T07:42:06.765Z,49.61
2022-07-29T07:44:46.290Z,50.47
2022-07-29T07:47:24.660Z,48.97
2022-07-29T07:49:54.976Z,49.88
2022-07-29T07:52:23.114Z,49.37
2022-07-29T07:54:50.077Z,49.05
2022-07-29T07:57:17.335Z,49.91
2022-07-29T07:59:44.191Z,49.41
2022-07-29T08:02:11.308Z,49.20
2022-07-29T08:04:39.066Z,49.36
2022-07-29T08:07:05.932Z,49.48
2022-07-29T08:09:32.901Z,50.41
2022-07-29T08:12:06.525Z,49.48
2022-07-29T08:14:34.485Z,49.60
2022-07-29T08:17:01.758Z,48.75
2022-07-29T08:19:28.819Z,48.50
2022-07-29T08:21:57.927Z,48.12
2022-07-29T08:24:43.234Z,47.64
2022-07-29T08:27:40.721Z,47.33
2022-07-29T08:30:01.600Z,46.62
2022-07-29T08:32:51.883Z,46.18
2022-07-29T08:35:16.435Z,45.22
2022-07-29T08:37:43.253Z,45.37
2022-07-29T08:40:10.584Z,45.59
2022-07-29T08:42:37.719Z,44.80
2022-07-29T08:45:06.305Z,44.43
2022-07-29T08:47:34.569Z,43.58
2022-07-29T08:50:01.410Z,43.17
2022-07-29T08:52:33.675Z,42.97
2022-07-29T08:55:01.064Z,44.24
2022-07-29T08:57:37.138Z,44.08
2022-07-29T09:00:11.781Z,43.73
2022-07-29T09:02:43.325Z,42.36
2022-07-29T09:05:14.027Z,41.54
2022-07-29T09:07:44.309Z,41.75
2022-07-29T09:10:11.750Z,42.11
2022-07-29T09:12:39.089Z,41.11
2022-07-29T09:15:06.699Z,40.21
2022-07-29T09:17:50.465Z,40.73
2022-07-29T09:20:19.813Z,41.40
2022-07-29T09:22:50.725Z,40.36
2022-07-29T09:25:38.995Z,39.56
2022-07-29T09:28:14.563Z,39.67
2022-07-29T09:30:54.606Z,39.12
2022-07-29T09:33:31.975Z,39.39
2022-07-29T09:36:09.633Z,37.87
2022-07-29T09:38:38.148Z,36.81
2022-07-29T09:41:06.929Z,36.93
2022-07-29T09:43:34.550Z,37.58
2022-07-29T09:46:16.177Z,38.24
2022-07-29T09:48:43.215Z,38.00
2022-07-29T09:51:24.094Z,37.92
2022-07-29T09:53:54.228Z,35.87
2022-07-29T09:56:27.665Z,36.13
2022-07-29T09:59:27.499Z,36.08
2022-07-29T10:02:00.555Z,36.53
2022-07-29T10:05:24.500Z,36.62
2022-07-29T10:07:57.903Z,36.10
2022-07-29T10:10:34.922Z,35.14
2022-07-29T10:13:13.521Z,34.52
2022-07-29T10:15:46.347Z,35.25
2022-07-29T10:18:18.714Z,35.43
2022-07-29T10:20:46.533Z,36.86
2022-07-29T10:23:15.510Z,36.06
2022-07-29T10:25:46.387Z,34.62
2022-07-29T10:28:16.470Z,34.37
2022-07-29T10:30:45.985Z,33.67
2022-07-29T10:33:38.430Z,32.34
2022-07-29T10:36:45.687Z,33.27
2022-07-29T10:39:53.749Z,33.56
2022-07-29T10:42:33.967Z,35.12
2022-07-29T10:45:05.051Z,34.91
2022-07-29T10:50:17.202Z,35.62
2022-07-29T10:52:50.527Z,35.30
2022-07-29T10:58:31.233Z,33.77
2022-07-29T11:01:37.585Z,33.73
2022-07-29T11:04:06.480Z,33.95
2022-07-29T11:06:59.908Z,32.71
2022-07-29T11:09:37.541Z,32.86
2022-07-29T11:12:37.200Z,33.91
2022-07-29T11:15:13.781Z,33.43
2022-07-29T11:17:59.451Z,33.02
2022-07-29T11:20:38.089Z,33.41
2022-07-29T11:23:27.829Z,33.01
2022-07-29T11:26:23.330Z,33.11
2022-07-29T11:29:07.320Z,32.63
2022-07-29T11:31:39.167Z,32.13
2022-07-29T11:34:21.618Z,31.87
2022-07-29T11:37:07.771Z,31.40
2022-07-29T11:39:37.630Z,30.99
2022-07-29T11:42:28.266Z,29.48
2022-07-29T11:45:43.678Z,29.92
2022-07-29T11:48:28.045Z,30.22
2022-07-29T11:50:49.439Z,29.06
2022-07-29T11:53:17.301Z,29.37
2022-07-29T11:58:32.005Z,29.36
2022-07-29T12:01:04.932Z,27.30
2022-07-29T12:03:35.035Z,27.60
2022-07-29T12:06:23.307Z,27.57
2022-07-29T12:08:50.339Z,27.91
2022-07-29T12:11:39.120Z,27.74
2022-07-29T12:14:06.828Z,27.06
2022-07-29T12:16:41.086Z,27.14
2022-07-29T12:19:08.692Z,27.07
2022-07-29T12:21:56.214Z,28.81
2022-07-29T12:24:26.930Z,29.32
2022-07-29T12:27:02.780Z,27.68
2022-07-29T12:29:33.771Z,28.50
2022-07-29T12:32:03.087Z,30.24
2022-07-29T12:34:30.842Z,29.61
2022-07-29T12:36:57.842Z,29.58
2022-07-29T12:39:27.523Z,30.08
2022-07-29T12:42:03.905Z,30.96
2022-07-29T12:44:52.351Z,31.51
2022-07-29T12:47:20.750Z,31.18
2022-07-29T12:49:48.460Z,30.00
2022-07-29T12:52:33.478Z,29.20
2022-07-29T12:55:01.985Z,28.77
2022-07-29T12:57:29.295Z,27.61
2022-07-29T13:00:04.962Z,27.74
2022-07-29T13:02:32.483Z,27.94
2022-07-29T13:05:01.330Z,27.72
2022-07-29T13:07:54.148Z,27.47
2022-07-29T13:10:19.712Z,27.11
2022-07-29T13:13:11.993Z,27.15
2022-07-29T13:15:41.136Z,27.32
2022-07-29T13:18:37.116Z,27.17
2022-07-29T13:21:18.740Z,27.88
2022-07-29T13:23:46.081Z,28.48
2022-07-29T13:26:13.187Z,28.01
2022-07-29T13:28:40.145Z,28.52
2022-07-29T13:31:11.383Z,29.98
2022-07-29T13:33:38.272Z,28.18
2022-07-29T13:36:05.217Z,29.28
2022-07-29T13:38:32.062Z,28.79
2022-07-29T13:40:59.679Z,28.39
2022-07-29T13:43:26.568Z,28.13
2022-07-29T13:45:53.445Z,28.22
2022-07-29T13:48:20.433Z,28.23
2022-07-29T13:50:47.800Z,28.94
2022-07-29T13:53:17.602Z,27.71
2022-07-29T13:55:45.381Z,28.45
2022-07-29T13:58:12.340Z,28.45
2022-07-29T14:00:39.479Z,28.31
2022-07-29T14:03:07.571Z,27.19
2022-07-29T14:05:34.580Z,26.14
2022-07-29T14:08:01.477Z,27.13
2022-07-29T14:10:28.343Z,27.96
2022-07-29T14:12:55.249Z,27.91
2022-07-29T14:15:22.336Z,27.15
2022-07-29T14:17:49.243Z,27.23
2022-07-29T14:20:17.200Z,27.15
2022-07-29T14:22:45.031Z,27.23
2022-07-29T14:25:14.632Z,26.91
2022-07-29T14:27:43.224Z,27.38
2022-07-29T14:30:10.770Z,27.52
2022-07-29T14:32:37.684Z,27.77
2022-07-29T14:35:05.811Z,26.89
2022-07-29T14:37:39.778Z,26.35
2022-07-29T14:40:09.091Z,26.16
2022-07-29T14:42:37.223Z,24.96
2022-07-29T14:45:05.802Z,25.61
2022-07-29T14:47:32.734Z,25.65
2022-07-29T14:49:59.563Z,25.74
2022-07-29T14:52:26.470Z,25.98
2022-07-29T14:54:53.364Z,25.65
2022-07-29T14:57:20.921Z,25.08
2022-07-29T14:59:47.773Z,27.00
2022-07-29T15:02:14.653Z,26.49
2022-07-29T15:04:41.575Z,25.93
2022-07-29T15:07:08.479Z,25.92
2022-07-29T15:09:36.276Z,25.56
2022-07-29T15:12:08.020Z,25.86
2022-07-29T15:14:34.932Z,26.40
2022-07-29T15:17:01.877Z,26.29
2022-07-29T15:19:31.717Z,26.64
2022-07-29T15:21:59.760Z,27.10
2022-07-29T15:24:27.146Z,27.43
2022-07-29T15:26:54.918Z,27.34
2022-07-29T15:29:22.499Z,27.12
2022-07-29T15:31:49.452Z,27.01
2022-07-29T15:34:16.396Z,26.24
2022-07-29T15:36:52.378Z,26.19
2022-07-29T15:39:20.599Z,27.68
2022-07-29T15:41:47.712Z,27.81
2022-07-29T15:44:14.651Z,27.85
2022-07-29T15:47:01.010Z,27.68
2022-07-29T15:49:47.717Z,27.84
2022-07-29T15:52:20.324Z,28.11
2022-07-29T15:54:57.005Z,28.08
2022-07-29T15:57:24.880Z,28.31
2022-07-29T15:59:52.162Z,28.30
2022-07-29T16:02:19.164Z,28.43
2022-07-29T16:04:46.057Z,27.92
2022-07-29T16:07:12.946Z,28.00
2022-07-29T16:09:41.709Z,29.19
2022-07-29T16:12:14.964Z,29.11
2022-07-29T16:14:43.813Z,29.64
2022-07-29T16:17:14.546Z,29.76
2022-07-29T16:19:43.119Z,29.90
2022-07-29T16:22:10.122Z,30.65
2022-07-29T16:24:37.217Z,30.26
2022-07-29T16:27:04.226Z,30.43
2022-07-29T16:29:31.194Z,30.45
2022-07-29T16:31:58.158Z,31.07
2022-07-29T16:34:25.149Z,30.70
2022-07-29T16:36:52.027Z,30.86
2022-07-29T16:39:18.828Z,31.47
2022-07-29T16:41:45.681Z,31.67
2022-07-29T16:44:12.618Z,31.76
2022-07-29T16:46:39.635Z,31.51
2022-07-29T16:49:08.478Z,31.42
2022-07-29T16:51:35.540Z,31.46
2022-07-29T16:54:02.363Z,32.10
2022-07-29T16:56:29.292Z,31.98
2022-07-29T16:58:58.205Z,32.18
2022-07-29T17:01:25.173Z,32.52
2022-07-29T17:04:07.407Z,32.75
2022-07-29T17:06:40.472Z,31.89
2022-07-29T17:09:09.502Z,32.08
2022-07-29T17:11:53.687Z,32.27
2022-07-29T17:14:28.331Z,32.52
2022-07-29T17:17:01.083Z,33.46
2022-07-29T17:19:39.759Z,33.89
2022-07-29T17:22:15.682Z,34.21
2022-07-29T17:24:45.612Z,34.31
2022-07-29T17:27:12.976Z,35.58
2022-07-29T17:29:40.055Z,37.06
2022-07-29T17:32:09.241Z,38.26
2022-07-29T17:34:41.440Z,38.62
2022-07-29T17:37:10.780Z,40.24
2022-07-29T17:39:41.990Z,41.13
2022-07-29T17:42:10.911Z,42.85
2022-07-29T17:44:39.181Z,43.64
2022-07-29T17:47:15.985Z,44.44
2022-07-29T17:49:44.300Z,45.04
2022-07-29T17:52:11.621Z,45.84
2022-07-29T17:54:43.955Z,45.96
2022-07-29T17:57:10.929Z,46.58
2022-07-29T17:59:37.862Z,46.89
2022-07-29T18:02:04.807Z,47.64
2022-07-29T18:04:31.719Z,47.74
2022-07-29T18:06:58.928Z,48.10
2022-07-29T18:09:26.096Z,48.31
2022-07-29T18:11:52.993Z,48.30
2022-07-29T18:14:19.868Z,48.37
2022-07-29T18:16:46.782Z,48.42
2022-07-29T18:19:14.172Z,48.54
2022-07-29T18:21:45.931Z,48.78
2022-07-29T18:24:18.995Z,49.16
2022-07-29T18:26:45.860Z,49.72
2022-07-29T18:29:12.764Z,50.10
2022-07-29T18:31:41.278Z,50.54
2022-07-29T18:34:08.855Z,50.79
2022-07-29T18:36:35.758Z,51.20
2022-07-29T18:39:05.402Z,51.64
2022-07-29T18:41:34.271Z,51.70
2022-07-29T18:44:01.181Z,51.75
2022-07-29T18:46:28.111Z,52.13
2022-07-29T18:48:57.401Z,52.85
2022-07-29T18:51:24.280Z,53.04
2022-07-29T18:53:51.233Z,53.33
2022-07-29T18:56:18.650Z,53.19
2022-07-29T18:58:45.507Z,53.98
2022-07-29T19:01:16.418Z,53.47
2022-07-29T19:03:43.697Z,53.18
2022-07-29T19:06:10.597Z,53.59
2022-07-29T19:08:37.454Z,53.27
2022-07-29T19:11:04.278Z,53.31
2022-07-29T19:13:31.364Z,53.01
2022-07-29T19:15:58.377Z,52.46
2022-07-29T19:18:25.301Z,53.46
2022-07-29T19:20:52.124Z,54.06
2022-07-29T19:23:19.858Z,53.57
2022-07-29T19:25:53.613Z,52.97
2022-07-29T19:28:21.942Z,52.33
2022-07-29T19:30:49.442Z,52.53
2022-07-29T19:33:17.764Z,52.67
2022-07-29T19:35:54.630Z,53.10
2022-07-29T19:38:22.205Z,53.44
2022-07-29T19:40:49.098Z,53.82
2022-07-29T19:43:51.688Z,53.92
2022-07-29T19:46:02.992Z,54.36
2022-07-29T19:48:29.978Z,54.71
2022-07-29T19:50:57.122Z,54.54
2022-07-29T19:53:23.987Z,54.74
2022-07-29T19:55:52.072Z,55.20
2022-07-29T19:58:18.931Z,55.50
2022-07-29T20:00:49.440Z,55.93
2022-07-29T20:03:16.826Z,56.40
2022-07-29T20:05:43.863Z,55.73
2022-07-29T20:08:15.198Z,55.71
2022-07-29T20:10:42.068Z,55.80
2022-07-29T20:13:09.108Z,55.96
2022-07-29T20:15:36.291Z,56.39
2022-07-29T20:18:03.394Z,56.27
2022-07-29T20:20:30.303Z,56.90
2022-07-29T20:22:57.437Z,57.53
2022-07-29T20:25:24.537Z,58.68
2022-07-29T20:27:52.627Z,59.23
2022-07-29T20:30:20.565Z,59.42
2022-07-29T20:32:48.336Z,59.51
2022-07-29T20:35:15.513Z,60.24
2022-07-29T20:37:52.449Z,60.73
2022-07-29T20:40:24.836Z,60.77
2022-07-29T20:42:52.127Z,61.00
2022-07-29T20:45:20.219Z,60.97
2022-07-29T20:47:47.253Z,61.64
2022-07-29T20:50:14.394Z,62.03
2022-07-29T20:52:43.417Z,62.48
2022-07-29T20:55:10.830Z,62.16
2022-07-29T20:57:38.653Z,62.53
2022-07-29T21:00:08.497Z,62.86
2022-07-29T21:02:35.933Z,63.28
2022-07-29T21:05:02.840Z,63.71
2022-07-29T21:07:29.756Z,64.45
2022-07-29T21:09:56.682Z,64.51
2022-07-29T21:12:23.762Z,64.79
2022-07-29T21:14:51.893Z,65.09
2022-07-29T21:17:21.210Z,65.45
2022-07-29T21:19:52.667Z,65.77
2022-07-29T21:22:22.077Z,66.17
2022-07-29T21:24:49.340Z,66.28
2022-07-29T21:27:35.204Z,67.13
2022-07-29T21:30:06.923Z,66.93
2022-07-29T21:32:34.060Z,67.52
2022-07-29T21:35:00.978Z,67.54
2022-07-29T21:37:28.275Z,67.49
2022-07-29T21:39:55.159Z,68.06
2022-07-29T21:42:22.057Z,68.13
2022-07-29T21:44:49.031Z,68.75
2022-07-29T21:47:16.078Z,69.03
2022-07-29T21:49:42.947Z,69.19
2022-07-29T21:52:10.876Z,69.28
2022-07-29T21:54:38.411Z,69.80
2022-07-29T21:57:05.669Z,70.20
2022-07-29T21:59:32.851Z,70.20
2022-07-29T22:02:01.254Z,70.15
2022-07-29T22:04:29.393Z,70.09
2022-07-29T22:06:57.890Z,70.83
2022-07-29T22:09:25.554Z,70.96
2022-07-29T22:11:52.509Z,70.91
2022-07-29T22:14:19.387Z,71.25
2022-07-29T22:16:47.302Z,71.71
2022-07-29T22:19:15.454Z,71.87
2022-07-29T22:21:42.706Z,72.23
2022-07-29T22:24:10.785Z,72.02
2022-07-29T22:26:38.525Z,72.73
2022-07-29T22:29:05.914Z,72.94
2022-07-29T22:31:32.841Z,73.35
2022-07-29T22:33:59.707Z,73.57
2022-07-29T22:36:27.085Z,73.74
2022-07-29T22:38:53.946Z,74.20
2022-07-29T22:41:20.967Z,73.57
2022-07-29T22:43:47.835Z,72.82
2022-07-29T22:46:14.792Z,73.26
2022-07-29T22:48:41.745Z,73.60
2022-07-29T22:51:09.149Z,74.88
2022-07-29T22:53:36.980Z,75.66
2022-07-29T22:56:04.203Z,75.75
2022-07-29T22:58:31.042Z,76.26
2022-07-29T23:00:58.197Z,76.49
2022-07-29T23:03:26.627Z,76.49
2022-07-29T23:05:53.525Z,77.52
2022-07-29T23:08:20.743Z,77.46
2022-07-29T23:10:47.974Z,77.98
2022-07-29T23:13:14.921Z,78.57
2022-07-29T23:15:42.157Z,78.44
2022-07-29T23:18:09.332Z,77.90
2022-07-29T23:20:36.593Z,77.42
2022-07-29T23:23:03.715Z,76.94
2022-07-29T23:25:30.624Z,76.76
2022-07-29T23:27:57.763Z,76.36
2022-07-29T23:30:24.799Z,77.00
2022-07-29T23:32:51.756Z,76.44
2022-07-29T23:35:18.739Z,77.05
2022-07-29T23:37:45.642Z,78.19
2022-07-29T23:40:14.782Z,78.91
2022-07-29T23:42:42.879Z,79.61
2022-07-29T23:45:11.485Z,79.87
2022-07-29T23:47:38.382Z,79.36
2022-07-29T23:50:07.306Z,79.95
2022-07-29T23:52:34.238Z,80.41
2022-07-29T23:55:38.108Z,80.63
2022-07-29T23:57:49.531Z,81.55
